Terminal Aerodrome Forecast
Issued by NWS Cleveland, OH

Home | Current Version | Previous Version | Graphics & Text | Print | Product List | Glossary On
Versions: 1 2 3 4 5 6 7 8 9 10 11 12 13 14
947
FTUS41 KCLE 231434 AAA
TAFCAK
TAF AMD
KCAK 231434Z 2315/2412 33005KT P6SM SCT015 BKN028
     FM231700 02008KT P6SM SCT035
     FM232300 VRB03KT P6SM SKC=

USA.gov is the U.S. government's official web portal to all federal, state and local government web resources and services.